Latest Weather Observations for Cape Moreton

IDQ60801

Issued at 7:32 am EST Sunday 26 March 2017 (issued every 30 minutes, with the page automatically refreshed every 10 minutes)

About weather observations | Map of weather stations | Latest weather observations for QLD | Other Formats
Station Details ID: 040043 Name: CAPE MORETON LIGHTHOUSE Lat: -27.03 Lon: 153.47 Height: 99.9 m
Data from the previous 72 hours. | See also: Recent months at Cape Moreton
Date/Time
EST
Temp
°C
App
Temp
°C
Dew
Point
°C
Rel
Hum
%
Delta-T
°C
Wind Press
QNH
hPa
Press
MSL
hPa
Rain since
9am
mm
Dir  Spd
km/h
Gust
km/h
Spd
kts
Gust
kts
26/07:30am 26.3 27.3 20.2 69 4.0 ESE 15 19 8 10 1015.6 1015.1 0.2
26/07:00am 25.3 26.9 19.9 72 3.5 ESE 11 17 6 9 1015.2 1014.7 0.2
26/06:30am 24.1 24.9 19.8 77 2.8 ESE 15 20 8 11 1015.0 1014.5 0.2
26/06:00am 23.6 25.2 19.1 76 2.9 ENE 9 13 5 7 1014.8 1014.3 0.2
26/05:30am 23.5 25.2 19.4 78 2.6 ESE 9 11 5 6 1014.6 1014.1 0.2
26/05:00am 23.3 25.1 19.5 79 2.4 ESE 9 15 5 8 1014.1 1013.6 0.2
26/04:30am 23.2 23.8 19.4 79 2.4 ESE 15 19 8 10 1013.8 1013.3 0.2
26/04:00am 23.2 24.4 19.8 81 2.2 ESE 13 19 7 10 1013.7 1013.2 0.2
26/03:30am 23.3 24.0 19.7 80 2.3 ESE 15 19 8 10 1013.8 1013.3 0.2
26/03:00am 23.0 24.1 19.6 81 2.2 E 13 17 7 9 1013.7 1013.2 0.2
26/02:30am 23.1 23.4 19.7 81 2.2 ESE 17 20 9 11 1014.0 1013.5 0.2
26/02:00am 23.2 22.8 19.4 79 2.4 ESE 20 24 11 13 1014.2 1013.7 0.2
26/01:30am 23.2 23.6 19.8 81 2.2 E 17 22 9 12 1014.6 1014.1 0.2
26/01:00am 23.4 22.9 19.1 77 2.7 E 20 24 11 13 1014.9 1014.4 0.2
26/12:30am 23.4 22.6 19.3 78 2.6 E 22 28 12 15 1015.2 1014.7 0.2
26/12:00am 23.3 22.7 19.7 80 2.3 ESE 22 26 12 14 1015.4 1014.9 0.2
 
Date/Time
EST
Temp
°C
App
Temp
°C
Dew
Point
°C
Rel
Hum
%
Delta-T
°C
Wind Press
QNH
hPa
Press
MSL
hPa
Rain since
9am
mm
Dir  Spd
km/h
Gust
km/h
Spd
kts
Gust
kts
25/11:30pm 23.4 22.5 19.8 80 2.3 ESE 24 28 13 15 1015.7 1015.2 0.2
25/11:00pm 23.5 22.5 19.6 79 2.5 E 24 28 13 15 1016.2 1015.7 0.2
25/10:30pm 23.6 22.3 19.9 80 2.4 ESE 26 32 14 17 1016.3 1015.8 0.2
25/10:00pm 23.5 22.0 20.2 82 2.1 ESE 28 33 15 18 1016.4 1015.9 0.2
25/09:30pm 23.7 22.2 20.2 81 2.3 ESE 28 33 15 18 1016.4 1015.9 0.2
25/09:00pm 23.8 22.0 20.3 81 2.3 E 30 37 16 20 1016.4 1015.9 0.2
25/08:30pm 23.6 21.5 19.7 79 2.5 E 30 35 16 19 1016.3 1015.8 0.2
25/08:00pm 23.8 21.4 19.9 79 2.5 ESE 32 37 17 20 1016.2 1015.7 0.2
25/07:30pm 23.9 21.4 19.8 78 2.6 ESE 32 37 17 20 1016.0 1015.5 0.2
25/07:00pm 23.8 21.8 19.9 79 2.5 ESE 30 37 16 20 1015.6 1015.1 0.2
25/06:30pm 23.8 21.8 19.9 79 2.5 ESE 30 37 16 20 1015.3 1014.8 0.2
25/06:00pm 23.8 21.4 19.9 79 2.5 ESE 32 39 17 21 1015.0 1014.5 0.2
25/05:30pm 24.0 21.4 19.5 76 2.9 ESE 32 39 17 21 1014.8 1014.3 0.2
25/05:00pm 24.4 21.9 19.7 75 3.0 ESE 32 35 17 19 1014.3 1013.8 0.2
25/04:30pm 24.8 22.8 20.7 78 2.7 ESE 32 39 17 21 1014.2 1013.7 0.2
25/04:00pm 24.8 22.6 20.7 78 2.7 ESE 33 39 18 21 1014.2 1013.7 0.2
25/03:30pm 25.0 23.2 20.3 75 3.1 SE 30 39 16 21 1014.3 1013.8 0.2
25/03:00pm 25.4 23.3 20.6 75 3.2 ESE 32 39 17 21 1014.3 1013.8 0.2
25/02:30pm 25.2 22.7 19.8 72 3.5 SE 32 39 17 21 1014.4 1013.9 0.2
25/02:00pm 25.6 23.5 20.6 74 3.3 ESE 32 37 17 20 1014.4 1013.9 0.2
25/01:30pm 25.9 24.1 21.1 75 3.2 ESE 32 39 17 21 1014.7 1014.2 0.2
25/01:00pm 25.6 23.6 20.8 75 3.2 SE 32 39 17 21 1015.1 1014.6 0.2
25/12:30pm 26.0 23.8 20.8 73 3.4 ESE 33 39 18 21 1015.3 1014.8 0.2
25/12:00pm 26.2 24.1 21.6 76 3.1 SE 35 41 19 22 1015.7 1015.2 0.2
25/11:30am 26.0 23.9 21.0 74 3.3 SE 33 41 18 22 1016.0 1015.5 0.2
25/11:00am 25.9 23.5 21.1 75 3.2 SE 35 43 19 23 1016.4 1015.9 0.0
25/10:30am 25.4 22.7 21.3 78 2.7 SE 37 44 20 24 1016.6 1016.1 0.0
25/10:00am 24.9 22.0 20.8 78 2.7 SE 37 44 20 24 1016.5 1016.0 0.0
25/09:30am 24.3 20.3 21.0 82 2.2 SE 43 50 23 27 1016.4 1015.9 0.0
25/09:00am 24.7 21.0 21.6 83 2.1 SE 43 48 23 26 1016.2 1015.7 6.8
25/08:30am 24.1 19.8 20.8 82 2.2 SE 44 54 24 29 1016.2 1015.7 6.8
25/08:00am 24.2 19.9 21.5 85 1.8 SE 46 54 25 29 1015.6 1015.1 6.8
25/07:30am 24.4 20.3 21.9 86 1.7 SE 46 54 25 29 1015.1 1014.6 6.8
25/07:00am 23.8 19.4 21.9 89 1.3 ESE 48 56 26 30 1014.8 1014.3 6.8
25/06:30am 22.7 19.9 22.4 98 0.2 SE 41 54 22 29 1014.9 1014.4 6.8
25/06:00am 23.4 20.3 22.9 97 0.3 SE 44 54 24 29 1014.4 1013.9 6.8
25/05:30am 23.6 20.7 23.4 99 0.1 ESE 44 54 24 29 1014.1 1013.6 6.8
25/05:00am 22.9 19.4 22.9 100 0.0 ESE 46 54 25 29 1014.0 1013.5 6.8
25/04:30am 22.7 18.3 22.7 100 0.0 ESE 50 57 27 31 1013.6 1013.1 6.6
25/04:00am 23.9 20.8 23.0 95 0.6 ESE 44 52 24 28 1013.6 1013.1 6.2
25/03:30am 23.8 20.7 23.0 95 0.5 ESE 44 52 24 28 1013.6 1013.1 6.2
25/03:00am 23.9 20.8 23.0 95 0.6 ESE 44 50 24 27 1013.7 1013.2 6.2
25/02:30am 22.5 18.4 22.5 100 0.0 ESE 48 57 26 31 1014.2 1013.7 6.2
25/02:00am 23.3 20.6 23.3 100 0.0 ESE 43 48 23 26 1014.3 1013.8 6.2
25/01:30am 22.8 21.9 22.8 100 0.0 SE 32 50 17 27 1014.6 1014.1 6.0
25/01:00am 22.4 19.2 22.4 100 0.0 SE 43 54 23 29 1015.4 1014.9 3.2
25/12:30am 22.6 19.5 22.6 100 0.0 SE 43 50 23 27 1015.4 1014.9 1.0
25/12:00am 22.9 19.4 22.9 100 0.0 SE 46 54 25 29 1015.6 1015.1 1.0
 
Date/Time
EST
Temp
°C
App
Temp
°C
Dew
Point
°C
Rel
Hum
%
Delta-T
°C
Wind Press
QNH
hPa
Press
MSL
hPa
Rain since
9am
mm
Dir  Spd
km/h
Gust
km/h
Spd
kts
Gust
kts
24/11:30pm 23.4 20.7 23.4 100 0.0 ESE 43 50 23 27 1015.7 1015.2 1.0
24/11:00pm 23.5 20.9 23.5 100 0.0 SE 43 52 23 28 1015.6 1015.1 1.0
24/10:30pm 23.5 20.9 23.5 100 0.0 SE 43 48 23 26 1015.6 1015.1 1.0
24/10:00pm 23.2 23.3 23.2 100 0.0 SE 28 33 15 18 1015.7 1015.2 1.0
24/09:30pm 23.1 23.1 23.1 100 0.0 S 28 35 15 19 1015.8 1015.3 0.8
24/09:00pm 23.0 22.0 23.0 100 0.0 S 33 44 18 24 1016.0 1015.5 0.2
24/08:30pm 23.4 21.1 23.4 100 0.0 SE 41 50 22 27 1015.8 1015.3 0.2
24/08:00pm 23.3 22.5 23.1 99 0.1 SE 32 41 17 22 1015.8 1015.3 0.2
24/07:30pm 23.0 23.0 23.0 100 0.0 SSE 28 39 15 21 1015.7 1015.2 0.0
24/07:00pm 23.9 23.5 23.7 99 0.1 SSE 32 41 17 22 1015.1 1014.6 0.0
24/06:30pm 24.8 25.1 22.9 89 1.3 SE 26 32 14 17 1015.1 1014.6 0.0
24/06:00pm 24.8 26.3 23.0 90 1.2 SE 20 24 11 13 1014.7 1014.2 0.0
24/05:30pm 25.3 27.6 23.5 90 1.2 ESE 17 22 9 12 1014.5 1014.0 0.0
24/05:00pm 25.2 26.6 21.9 82 2.2 SE 17 20 9 11 1014.1 1013.6 0.0
24/04:30pm 25.2 26.6 21.9 82 2.2 SE 17 20 9 11 1014.0 1013.5 0.0
24/04:00pm 25.6 28.0 22.3 82 2.2 E 13 17 7 9 1013.8 1013.3 0.0
24/03:30pm 25.7 28.3 22.6 83 2.1 E 13 15 7 8 1013.8 1013.3 0.0
24/03:00pm 25.8 28.8 23.3 86 1.7 E 13 17 7 9 1013.9 1013.4 0.0
24/02:30pm 25.5 28.4 23.9 91 1.1 ENE 15 19 8 10 1013.9 1013.4 0.0
24/02:00pm 25.4 28.1 23.5 89 1.3 ENE 15 17 8 9 1014.2 1013.7 0.0
24/01:30pm 25.7 28.8 23.6 88 1.4 NE 13 17 7 9 1014.5 1014.0 0.0
24/01:00pm 25.9 28.1 23.2 85 1.8 ENE 17 20 9 11 1015.0 1014.5 0.0
24/12:30pm 26.1 28.7 24.0 88 1.4 ENE 17 20 9 11 1015.2 1014.7 0.0
24/12:00pm 26.3 28.7 23.6 85 1.9 ENE 17 20 9 11 1015.7 1015.2 0.0
24/11:30am 26.5 28.3 23.2 82 2.3 E 19 22 10 12 1016.0 1015.5 0.0
24/11:00am 26.4 27.7 22.7 80 2.5 E 20 24 11 13 1016.3 1015.8 0.0
24/10:30am 26.0 27.8 23.3 85 1.8 ESE 19 22 10 12 1016.6 1016.1 0.0
24/10:00am 26.5 28.3 24.3 88 1.5 ESE 22 28 12 15 1016.5 1016.0 0.0
24/09:30am 26.5 28.3 24.9 91 1.1 ESE 24 28 13 15 1016.4 1015.9 0.0
24/09:00am 26.1 27.8 24.7 92 1.0 SE 24 30 13 16 1016.3 1015.8 0.4
24/08:30am 24.6 26.8 23.9 96 0.5 SSE 19 22 10 12 1016.2 1015.7 0.4
24/08:00am 24.3 26.9 24.0 98 0.2 SSE 17 22 9 12 1016.1 1015.6 0.4
24/07:30am 24.0 27.2 23.7 98 0.2 SSW 13 19 7 10 1015.7 1015.2 0.4
24/07:00am 25.1 29.2 23.3 90 1.2 S 7 9 4 5 1015.4 1014.9 0.4
24/06:30am 24.4 28.8 23.5 95 0.6 SSE 6 9 3 5 1015.2 1014.7 0.4
24/06:00am 24.4 28.6 23.4 94 0.7 ESE 7 11 4 6 1014.8 1014.3 0.4
24/05:30am 24.3 28.1 23.4 95 0.6 E 9 46 5 25 1014.5 1014.0 0.4
24/05:00am 24.6 28.8 23.4 93 0.8 E 7 9 4 5 1014.3 1013.8 0.4
24/04:30am 24.6 28.5 23.6 94 0.7 E 9 13 5 7 1014.0 1013.5 0.4
24/04:00am 24.8 28.3 23.6 93 0.8 ENE 11 13 6 7 1013.9 1013.4 0.4
24/03:30am 24.7 28.4 23.3 92 1.0 ENE 9 11 5 6 1014.1 1013.6 0.4
24/03:00am 24.6 28.3 23.2 92 1.0 E 9 11 5 6 1014.2 1013.7 0.4
24/02:30am 24.7 28.5 23.5 93 0.8 E 9 11 5 6 1014.5 1014.0 0.4
24/02:00am 24.6 27.6 23.4 93 0.8 E 13 17 7 9 1014.7 1014.2 0.4
24/01:30am 24.9 28.4 23.5 92 1.0 E 11 15 6 8 1014.9 1014.4 0.4
24/01:00am 25.1 27.7 23.3 90 1.2 ENE 15 17 8 9 1015.2 1014.7 0.4
24/12:30am 25.1 28.3 23.7 92 1.0 ENE 13 15 7 8 1015.4 1014.9 0.4
24/12:00am 24.9 27.9 24.0 95 0.6 ENE 15 17 8 9 1015.5 1015.0 0.4
 
Date/Time
EST
Temp
°C
App
Temp
°C
Dew
Point
°C
Rel
Hum
%
Delta-T
°C
Wind Press
QNH
hPa
Press
MSL
hPa
Rain since
9am
mm
Dir  Spd
km/h
Gust
km/h
Spd
kts
Gust
kts
23/11:30pm 24.8 28.0 24.3 97 0.3 E 15 19 8 10 1015.8 1015.3 0.4
23/11:00pm 24.8 27.7 24.5 98 0.2 E 17 19 9 10 1015.9 1015.4 0.4
23/10:30pm 24.8 27.7 24.5 98 0.2 E 17 22 9 12 1016.3 1015.8 0.4
23/10:00pm 24.8 27.1 24.5 98 0.2 ENE 20 24 11 13 1016.2 1015.7 0.4
23/09:30pm 24.8 27.4 24.6 99 0.1 E 19 22 10 12 1016.3 1015.8 0.4
23/09:00pm 24.9 27.9 24.6 98 0.2 E 17 20 9 11 1016.6 1016.1 0.4
23/08:30pm 24.9 27.1 24.0 95 0.6 E 19 22 10 12 1016.6 1016.1 0.4
23/08:00pm 24.9 27.6 24.2 96 0.5 E 17 20 9 11 1016.3 1015.8 0.4
23/07:30pm 24.8 27.7 23.8 94 0.7 E 15 19 8 10 1016.1 1015.6 0.4
23/07:00pm 24.7 27.6 23.8 95 0.6 E 15 17 8 9 1015.8 1015.3 0.4
23/06:30pm 24.6 27.0 23.6 94 0.7 E 17 19 9 10 1015.5 1015.0 0.4
23/06:00pm 24.7 27.8 23.5 93 0.8 E 13 15 7 8 1015.3 1014.8 0.4
23/05:30pm 24.8 28.2 23.4 92 1.0 ENE 11 13 6 7 1015.1 1014.6 0.4
23/05:00pm 25.1 29.8 23.3 90 1.2 E 4 7 2 4 1015.1 1014.6 0.4
23/04:30pm 25.1 29.0 23.0 88 1.4 NNE 7 11 4 6 1014.9 1014.4 0.4
23/04:00pm 25.4 29.2 23.5 89 1.3 NNE 9 11 5 6 1014.6 1014.1 0.4
23/03:30pm 25.3 29.1 23.4 89 1.3 NNW 9 11 5 6 1014.5 1014.0 0.4
23/03:00pm 25.1 28.3 23.0 88 1.4 NW 11 13 6 7 1014.6 1014.1 0.4
23/02:30pm 25.4 28.0 23.3 88 1.4 NNW 15 20 8 11 1014.7 1014.2 0.4
23/02:00pm 25.5 28.3 23.0 86 1.7 NW 13 19 7 10 1014.8 1014.3 0.4
23/01:30pm 25.6 28.9 23.8 90 1.2 WNW 13 19 7 10 1015.0 1014.5 0.4
23/01:00pm 25.0 28.0 24.0 94 0.7 NW 15 22 8 12 1015.3 1014.8 0.4
23/12:30pm 25.2 28.3 24.2 94 0.7 NW 15 22 8 12 1015.8 1015.3 0.4
23/12:00pm 24.2 27.6 24.0 99 0.1 NW 13 19 7 10 1016.1 1015.6 0.4
23/11:30am 25.3 27.5 23.2 88 1.4 NNW 17 20 9 11 1016.4 1015.9 0.0
23/11:00am 25.4 27.1 23.1 87 1.6 N 19 24 10 13 1016.7 1016.2 0.0
23/10:30am 24.9 27.2 23.5 92 1.0 N 17 26 9 14 1016.8 1016.3 0.0
23/10:00am 25.1 27.2 23.7 92 1.0 NNE 19 24 10 13 1017.0 1016.5 0.0
23/09:30am 25.6 27.9 23.5 88 1.4 N 17 20 9 11 1017.2 1016.7 0.0
23/09:00am 25.2 26.9 22.3 84 1.9 NNE 17 22 9 12 1017.0 1016.5 15.6
23/08:30am 25.1 26.8 23.0 88 1.4 NNE 19 24 10 13 1016.7 1016.2 15.6
23/08:00am 24.7 25.4 21.6 83 2.1 NNE 20 24 11 13 1016.3 1015.8 15.6

Other Formats:

Comma delimited format used in spreadsheet applications
http://www.bom.gov.au/fwo/IDQ60801/IDQ60801.94594.axf

JavaScript Object Notation format (JSON) in row-major order
http://www.bom.gov.au/fwo/IDQ60801/IDQ60801.94594.json